createdAt,value
2018-12-22T00:01:46.921Z,4.50
2018-12-22T00:04:20.726Z,1.90
2018-12-22T00:06:56.259Z,2.33
2018-12-22T00:09:31.751Z,3.07
2018-12-22T00:12:05.443Z,1.70
2018-12-22T00:14:43.056Z,0.80
2018-12-22T00:17:16.626Z,0.80
2018-12-22T00:19:58.018Z,0.80
2018-12-22T00:22:32.083Z,1.30
2018-12-22T00:25:12.397Z,1.80
2018-12-22T00:27:49.589Z,1.80
2018-12-22T00:30:25.476Z,3.40
2018-12-22T00:33:02.736Z,3.97
2018-12-22T00:35:38.199Z,1.90
2018-12-22T00:38:15.621Z,1.77
2018-12-22T00:40:53.587Z,1.13
2018-12-22T00:43:28.987Z,1.20
2018-12-22T00:46:08.296Z,1.30
2018-12-22T00:51:39.512Z,1.70
2018-12-22T00:54:14.629Z,1.67
2018-12-22T00:56:46.028Z,1.40
2018-12-22T00:59:26.919Z,1.27
2018-12-22T01:02:01.982Z,1.37
2018-12-22T01:04:42.600Z,1.70
2018-12-22T01:07:26.465Z,1.40
2018-12-22T01:10:00.418Z,1.40
2018-12-22T01:12:34.211Z,1.40
2018-12-22T01:15:04.818Z,0.90
2018-12-22T01:17:40.143Z,1.70
2018-12-22T01:20:16.130Z,1.90
2018-12-22T01:22:58.031Z,2.90
2018-12-22T01:25:29.216Z,1.87
2018-12-22T01:28:09.194Z,1.33
2018-12-22T01:30:42.531Z,1.30
2018-12-22T01:33:18.142Z,1.10
2018-12-22T01:35:52.850Z,0.80
2018-12-22T01:38:26.684Z,0.73
2018-12-22T01:40:56.143Z,0.93
2018-12-22T01:43:31.398Z,1.40
2018-12-22T01:46:09.064Z,4.10
2018-12-22T01:48:49.000Z,1.97
2018-12-22T01:51:22.383Z,1.23
2018-12-22T01:54:02.636Z,2.37
2018-12-22T01:56:33.636Z,1.23
2018-12-22T01:59:08.939Z,1.73
2018-12-22T02:01:40.076Z,1.63
2018-12-22T02:04:11.758Z,1.00
2018-12-22T02:06:49.068Z,1.23
2018-12-22T02:09:29.190Z,0.80
2018-12-22T02:12:00.826Z,1.30
2018-12-22T02:14:35.771Z,1.37
2018-12-22T02:17:09.008Z,0.70
2018-12-22T02:19:44.078Z,0.90
2018-12-22T02:22:17.733Z,1.10
2018-12-22T02:24:57.760Z,0.80
2018-12-22T02:27:34.902Z,0.90
2018-12-22T02:30:06.380Z,1.03
2018-12-22T02:32:37.959Z,1.10
2018-12-22T02:35:11.299Z,0.83
2018-12-22T02:37:42.560Z,1.07
2018-12-22T02:40:16.707Z,1.27
2018-12-22T02:42:50.483Z,1.23
2018-12-22T02:45:30.625Z,0.90
2018-12-22T02:48:00.461Z,0.83
2018-12-22T02:50:35.275Z,1.20
2018-12-22T02:53:06.599Z,1.10
2018-12-22T02:55:39.868Z,1.00
2018-12-22T02:58:11.314Z,1.07
2018-12-22T03:00:43.115Z,1.10
2018-12-22T03:03:20.807Z,1.30
2018-12-22T03:05:55.479Z,1.20
2018-12-22T03:08:30.928Z,0.87
2018-12-22T03:11:04.936Z,0.87
2018-12-22T03:13:40.414Z,0.80
2018-12-22T03:16:15.088Z,0.80
2018-12-22T03:18:49.091Z,1.10
2018-12-22T03:21:23.468Z,0.70
2018-12-22T03:24:01.384Z,0.83
2018-12-22T03:26:36.824Z,0.93
2018-12-22T03:29:15.428Z,1.03
2018-12-22T03:31:43.720Z,0.90
2018-12-22T03:34:23.994Z,1.00
2018-12-22T03:37:06.405Z,0.90
2018-12-22T03:39:56.749Z,1.20
2018-12-22T03:42:31.221Z,0.70
2018-12-22T03:45:07.297Z,0.90
2018-12-22T03:47:38.649Z,0.90
2018-12-22T03:50:12.530Z,0.93
2018-12-22T03:52:43.789Z,0.77
2018-12-22T03:55:18.812Z,0.77
2018-12-22T03:57:50.468Z,0.80
2018-12-22T04:00:25.195Z,0.67
2018-12-22T04:03:05.247Z,1.00
2018-12-22T04:05:45.997Z,0.80
2018-12-22T04:08:21.093Z,0.93
2018-12-22T04:10:52.380Z,0.60
2018-12-22T04:13:27.604Z,0.80
2018-12-22T04:16:05.692Z,0.80
2018-12-22T04:18:45.587Z,0.50
2018-12-22T04:21:18.859Z,0.70
2018-12-22T04:23:54.436Z,0.50
2018-12-22T04:26:38.483Z,0.70
2018-12-22T04:29:12.747Z,0.60
2018-12-22T04:31:44.002Z,0.70
2018-12-22T04:34:24.411Z,0.60
2018-12-22T04:37:01.605Z,0.63
2018-12-22T04:39:36.484Z,0.63
2018-12-22T04:42:10.127Z,0.50
2018-12-22T04:44:44.905Z,0.70
2018-12-22T04:47:18.544Z,0.50
2018-12-22T04:49:53.296Z,0.57
2018-12-22T04:52:24.366Z,0.60
2018-12-22T04:55:02.085Z,0.77
2018-12-22T04:57:37.329Z,0.83
2018-12-22T05:00:11.301Z,0.60
2018-12-22T05:02:45.308Z,0.50
2018-12-22T05:05:21.023Z,0.50
2018-12-22T05:08:01.213Z,0.60
2018-12-22T05:10:32.983Z,0.60
2018-12-22T05:13:09.239Z,0.50
2018-12-22T05:15:43.675Z,0.50
2018-12-22T05:18:18.679Z,0.60
2018-12-22T05:20:54.350Z,1.07
2018-12-22T05:23:34.301Z,0.57
2018-12-22T05:26:04.985Z,0.50
2018-12-22T05:28:38.383Z,0.63
2018-12-22T05:31:11.818Z,0.50
2018-12-22T05:33:47.730Z,0.50
2018-12-22T05:36:27.916Z,0.40
2018-12-22T05:39:04.852Z,0.50
2018-12-22T05:41:38.779Z,0.50
2018-12-22T05:44:14.751Z,0.50
2018-12-22T05:47:00.981Z,0.50
2018-12-22T05:49:35.743Z,0.70
2018-12-22T05:52:09.412Z,0.60
2018-12-22T05:54:49.636Z,0.70
2018-12-22T05:57:24.482Z,0.57
2018-12-22T06:00:00.686Z,0.73
2018-12-22T06:02:34.812Z,0.60
2018-12-22T06:05:09.296Z,0.53
2018-12-22T06:07:44.093Z,1.00
2018-12-22T06:10:17.787Z,0.70
2018-12-22T06:12:51.660Z,0.60
2018-12-22T06:15:28.381Z,1.67
2018-12-22T06:18:03.537Z,0.87
2018-12-22T06:20:43.485Z,0.80
2018-12-22T06:23:16.745Z,0.60
2018-12-22T06:25:51.600Z,0.50
2018-12-22T06:28:26.299Z,1.27
2018-12-22T06:31:04.707Z,0.67
2018-12-22T06:33:35.781Z,0.60
2018-12-22T06:36:15.429Z,0.63
2018-12-22T06:38:48.623Z,0.60
2018-12-22T06:41:21.714Z,0.60
2018-12-22T06:43:56.388Z,0.53
2018-12-22T06:46:25.567Z,0.70
2018-12-22T06:49:00.610Z,0.70
2018-12-22T06:51:31.924Z,0.60
2018-12-22T06:54:07.010Z,0.50
2018-12-22T06:56:43.137Z,0.70
2018-12-22T06:59:18.129Z,0.60
2018-12-22T07:01:51.783Z,0.80
2018-12-22T07:04:22.988Z,0.50
2018-12-22T07:06:58.392Z,0.67
2018-12-22T07:09:48.718Z,0.50
2018-12-22T07:12:22.679Z,0.57
2018-12-22T07:15:02.756Z,0.60
2018-12-22T07:17:45.001Z,1.00
2018-12-22T07:20:35.672Z,0.60
2018-12-22T07:23:19.081Z,1.03
2018-12-22T07:29:00.707Z,0.80
2018-12-22T07:31:45.797Z,0.80
2018-12-22T07:58:37.439Z,0.87
2018-12-22T08:01:15.457Z,0.60
2018-12-22T08:06:59.298Z,0.80
2018-12-22T08:09:35.500Z,0.67
2018-12-22T08:12:09.148Z,0.70
2018-12-22T08:14:55.610Z,0.60
2018-12-22T08:17:35.876Z,0.60
2018-12-22T08:20:14.247Z,0.80
2018-12-22T08:22:50.529Z,0.90
2018-12-22T08:25:34.522Z,0.70
2018-12-22T08:28:08.600Z,0.90
2018-12-22T08:30:43.517Z,0.77
2018-12-22T08:33:13.216Z,0.70
2018-12-22T08:35:54.014Z,1.00
2018-12-22T08:41:35.833Z,0.90
2018-12-22T08:44:24.208Z,0.70
2018-12-22T08:47:04.594Z,0.80
2018-12-22T08:49:40.001Z,0.80
2018-12-22T08:52:15.693Z,0.70
2018-12-22T08:54:56.052Z,1.30
2018-12-22T08:57:25.637Z,0.80
2018-12-22T09:00:06.351Z,1.20
2018-12-22T09:02:44.529Z,0.70
2018-12-22T09:05:18.570Z,1.20
2018-12-22T09:07:53.351Z,1.00
2018-12-22T09:10:28.613Z,1.23
2018-12-22T09:13:01.255Z,1.23
2018-12-22T09:15:41.033Z,1.10
2018-12-22T09:18:16.229Z,1.00
2018-12-22T09:20:49.825Z,1.73
2018-12-22T09:23:23.942Z,1.20
2018-12-22T09:26:01.462Z,1.70
2018-12-22T09:28:33.025Z,1.20
2018-12-22T09:31:06.589Z,1.67
2018-12-22T09:33:42.173Z,1.37
2018-12-22T09:36:16.253Z,1.10
2018-12-22T09:38:50.689Z,1.07
2018-12-22T09:41:25.140Z,1.70
2018-12-22T09:43:58.867Z,2.17
2018-12-22T09:46:33.913Z,1.83
2018-12-22T09:49:11.211Z,1.73
2018-12-22T09:51:42.722Z,1.70
2018-12-22T09:54:14.123Z,1.30
2018-12-22T09:56:48.587Z,1.87
2018-12-22T09:59:23.971Z,1.63
2018-12-22T10:01:57.777Z,1.83
2018-12-22T10:04:31.268Z,2.00
2018-12-22T10:07:06.897Z,1.60
2018-12-22T10:09:40.775Z,0.90
2018-12-22T10:12:14.787Z,1.10
2018-12-22T10:14:48.232Z,0.90
2018-12-22T10:17:17.573Z,1.37
2018-12-22T10:19:58.167Z,0.93
2018-12-22T10:22:35.571Z,1.07
2018-12-22T10:25:10.291Z,1.10
2018-12-22T10:27:43.798Z,2.13
2018-12-22T10:30:24.712Z,1.00
2018-12-22T10:32:52.696Z,1.37
2018-12-22T10:35:26.772Z,1.00
2018-12-22T10:38:00.037Z,1.17
2018-12-22T10:40:31.356Z,1.87
2018-12-22T10:43:19.960Z,1.33
2018-12-22T10:46:00.206Z,1.17
2018-12-22T10:48:28.145Z,1.20
2018-12-22T10:50:55.829Z,1.30
2018-12-22T10:56:31.168Z,1.80
2018-12-22T10:58:58.996Z,1.97
2018-12-22T11:01:32.868Z,1.90
2018-12-22T11:04:13.121Z,2.80
2018-12-22T11:06:44.116Z,3.50
2018-12-22T11:09:18.454Z,3.10
2018-12-22T11:12:01.111Z,3.17
2018-12-22T11:14:34.854Z,3.23
2018-12-22T11:17:20.604Z,3.47
2018-12-22T11:20:08.745Z,2.70
2018-12-22T11:25:55.101Z,1.43
2018-12-22T11:28:39.799Z,2.27
2018-12-22T11:34:26.580Z,1.50
2018-12-22T11:37:03.181Z,1.33
2018-12-22T11:39:42.656Z,1.53
2018-12-22T11:42:19.477Z,1.10
2018-12-22T11:44:52.539Z,0.90
2018-12-22T11:47:31.728Z,0.77
2018-12-22T11:50:24.227Z,0.87
2018-12-22T11:53:14.672Z,0.90
2018-12-22T11:55:54.917Z,1.33
2018-12-22T11:58:28.859Z,0.90
2018-12-22T12:01:04.528Z,0.90
2018-12-22T12:03:48.761Z,1.30
2018-12-22T12:09:33.186Z,0.87
2018-12-22T12:12:07.511Z,1.90
2018-12-22T12:14:47.754Z,1.80
2018-12-22T12:17:34.060Z,1.10
2018-12-22T12:20:08.729Z,1.50
2018-12-22T12:22:42.352Z,1.20
2018-12-22T12:25:13.873Z,1.00
2018-12-22T12:27:54.536Z,1.47
2018-12-22T12:30:36.372Z,1.27
2018-12-22T12:33:12.945Z,1.00
2018-12-22T12:35:55.063Z,1.10
2018-12-22T12:38:30.240Z,1.13
2018-12-22T12:41:09.973Z,2.30
2018-12-22T12:46:48.919Z,1.07
2018-12-22T12:49:22.863Z,1.63
2018-12-22T12:51:56.497Z,1.07
2018-12-22T12:54:33.945Z,1.00
2018-12-22T12:57:14.110Z,1.60
2018-12-22T12:59:52.071Z,1.20
2018-12-22T13:02:40.387Z,1.10
2018-12-22T13:05:15.314Z,0.90
2018-12-22T13:07:46.312Z,1.13
2018-12-22T13:10:17.333Z,1.60
2018-12-22T13:12:53.197Z,1.00
2018-12-22T13:15:26.414Z,1.77
2018-12-22T13:18:01.986Z,1.50
2018-12-22T13:20:35.991Z,1.70
2018-12-22T13:23:18.021Z,1.50
2018-12-22T13:26:00.015Z,1.70
2018-12-22T13:28:33.471Z,3.43
2018-12-22T13:31:04.827Z,3.33
2018-12-22T13:33:47.428Z,3.00
2018-12-22T13:36:21.321Z,3.10
2018-12-22T13:39:00.957Z,3.63
2018-12-22T13:41:36.915Z,3.27
2018-12-22T13:44:17.504Z,1.90
2018-12-22T13:46:58.209Z,1.80
2018-12-22T13:49:33.467Z,2.20
2018-12-22T13:52:15.344Z,2.03
2018-12-22T13:54:49.430Z,2.37
2018-12-22T13:57:18.665Z,2.20
2018-12-22T14:00:08.704Z,2.40
2018-12-22T14:02:42.270Z,1.70
2018-12-22T14:05:13.192Z,1.83
2018-12-22T14:07:46.492Z,1.63
2018-12-22T14:10:22.108Z,1.50
2018-12-22T14:12:55.977Z,1.70
2018-12-22T14:15:27.056Z,1.93
2018-12-22T14:18:06.933Z,1.30
2018-12-22T14:20:51.128Z,1.53
2018-12-22T14:23:31.141Z,1.90
2018-12-22T14:26:06.437Z,2.00
2018-12-22T14:28:37.482Z,1.37
2018-12-22T14:31:11.839Z,1.80
2018-12-22T14:33:51.690Z,1.37
2018-12-22T14:36:25.157Z,2.00
2018-12-22T14:39:07.255Z,1.67
2018-12-22T14:41:39.354Z,1.40
2018-12-22T14:44:17.810Z,1.37
2018-12-22T14:46:52.821Z,1.33
2018-12-22T14:49:32.605Z,2.37
2018-12-22T14:52:06.172Z,1.77
2018-12-22T14:54:37.310Z,1.40
2018-12-22T14:57:06.017Z,1.20
2018-12-22T15:02:55.289Z,0.90
2018-12-22T15:05:26.708Z,1.60
2018-12-22T15:08:00.458Z,1.90
2018-12-22T15:10:46.984Z,16.03
2018-12-22T15:13:21.678Z,1.47
2018-12-22T15:15:58.536Z,1.10
2018-12-22T15:18:35.018Z,1.93
2018-12-22T15:21:04.444Z,1.23
2018-12-22T15:23:37.601Z,1.63
2018-12-22T15:26:11.714Z,1.20
2018-12-22T15:28:47.246Z,1.20
2018-12-22T15:31:27.697Z,1.73
2018-12-22T15:34:03.174Z,1.50
2018-12-22T15:36:40.948Z,1.30
2018-12-22T15:39:12.150Z,1.50
2018-12-22T15:41:43.873Z,1.47
2018-12-22T15:44:18.190Z,2.63
2018-12-22T15:46:53.679Z,1.60
2018-12-22T15:49:28.038Z,1.90
2018-12-22T15:52:01.605Z,2.30
2018-12-22T15:57:21.670Z,2.00
2018-12-22T16:00:03.098Z,2.03
2018-12-22T16:02:36.683Z,1.93
2018-12-22T16:05:16.696Z,2.07
2018-12-22T16:07:55.078Z,2.60
2018-12-22T16:10:33.017Z,2.43
2018-12-22T16:19:03.557Z,2.03
2018-12-22T16:21:50.078Z,2.23
2018-12-22T16:24:30.259Z,2.87
2018-12-22T16:27:05.867Z,10.17
2018-12-22T16:32:33.743Z,6.90
2018-12-22T16:38:17.736Z,3.20
2018-12-22T16:41:07.310Z,2.33
2018-12-22T16:50:00.618Z,4.67
2018-12-22T16:58:27.638Z,4.37
2018-12-22T17:15:52.928Z,4.50
2018-12-22T17:27:39.661Z,5.03
2018-12-22T17:30:26.705Z,4.30
2018-12-22T17:35:47.031Z,4.50
2018-12-22T17:41:24.302Z,4.30
2018-12-22T17:44:15.123Z,5.17
2018-12-22T17:49:41.392Z,4.40
2018-12-22T18:30:48.133Z,2.13
2018-12-22T18:33:22.149Z,2.70
2018-12-22T18:36:01.754Z,2.13
2018-12-22T18:38:43.408Z,2.70
2018-12-22T18:58:55.151Z,2.03
2018-12-22T19:01:30.985Z,2.07
2018-12-22T19:09:56.141Z,2.43
2018-12-22T19:12:30.635Z,2.70
2018-12-22T19:15:06.464Z,2.00
2018-12-22T19:17:45.632Z,1.93
2018-12-22T19:20:25.808Z,2.20
2018-12-22T19:23:01.460Z,2.87
2018-12-22T19:25:41.870Z,1.73
2018-12-22T19:28:17.747Z,2.10
2018-12-22T19:30:57.905Z,2.10
2018-12-22T19:33:35.823Z,2.27
2018-12-22T19:36:20.054Z,2.43
2018-12-22T19:39:02.160Z,3.03
2018-12-22T19:41:35.045Z,2.70
2018-12-22T19:44:21.207Z,2.20
2018-12-22T19:47:07.794Z,2.50
2018-12-22T19:49:58.630Z,2.80
2018-12-22T19:52:37.571Z,2.83
2018-12-22T20:01:05.370Z,2.50
2018-12-22T20:03:46.959Z,3.47
2018-12-22T20:11:56.725Z,4.53
2018-12-22T20:14:36.728Z,3.17
2018-12-22T20:17:10.152Z,2.97
2018-12-22T20:19:47.886Z,3.70
2018-12-22T20:22:34.544Z,3.30
2018-12-22T20:25:14.997Z,3.37
2018-12-22T20:28:01.772Z,3.00
2018-12-22T20:30:37.723Z,2.97
2018-12-22T20:33:15.228Z,3.90
2018-12-22T20:35:55.198Z,3.40
2018-12-22T20:38:28.445Z,3.20
2018-12-22T20:41:02.047Z,3.17
2018-12-22T20:43:43.421Z,3.50
2018-12-22T20:46:15.029Z,4.63
2018-12-22T20:48:52.979Z,4.60
2018-12-22T20:51:24.056Z,3.57
2018-12-22T20:56:31.635Z,3.37
2018-12-22T20:59:04.987Z,4.20
2018-12-22T21:01:38.578Z,5.60
2018-12-22T21:04:19.865Z,4.50
2018-12-22T21:06:54.747Z,4.10
2018-12-22T21:09:28.523Z,3.47
2018-12-22T21:12:02.459Z,4.27
2018-12-22T21:14:38.095Z,4.40
2018-12-22T21:17:07.441Z,3.50
2018-12-22T21:19:47.918Z,4.17
2018-12-22T21:22:18.900Z,4.93
2018-12-22T21:27:35.480Z,5.10
2018-12-22T21:30:12.882Z,4.20
2018-12-22T21:32:44.294Z,3.83
2018-12-22T21:35:22.580Z,3.93
2018-12-22T21:38:06.493Z,3.70
2018-12-22T21:40:46.605Z,4.00
2018-12-22T21:43:27.077Z,2.90
2018-12-22T21:45:57.895Z,3.73
2018-12-22T21:51:18.783Z,3.57
2018-12-22T21:53:58.383Z,3.50
2018-12-22T21:56:39.130Z,3.57
2018-12-22T21:59:14.524Z,2.67
2018-12-22T22:01:45.331Z,2.80
2018-12-22T22:04:16.207Z,2.50
2018-12-22T22:06:51.426Z,4.10
2018-12-22T22:09:22.632Z,4.13
2018-12-22T22:11:53.685Z,2.77
2018-12-22T22:14:33.275Z,3.87
2018-12-22T22:20:16.388Z,3.50
2018-12-22T22:22:49.380Z,3.10
2018-12-22T22:25:30.645Z,3.43
2018-12-22T22:28:03.738Z,2.93
2018-12-22T22:30:41.925Z,2.77
2018-12-22T22:33:17.163Z,3.30
2018-12-22T22:35:51.390Z,3.50
2018-12-22T22:38:29.295Z,4.17
2018-12-22T22:40:59.973Z,4.17
2018-12-22T22:43:33.065Z,3.63
2018-12-22T22:46:13.065Z,3.70
2018-12-22T22:48:46.267Z,3.50
2018-12-22T22:54:22.599Z,4.03
2018-12-22T22:56:56.208Z,4.50
2018-12-22T22:59:30.029Z,4.50
2018-12-22T23:02:07.717Z,4.50
2018-12-22T23:04:42.841Z,4.00
2018-12-22T23:07:16.291Z,3.73
2018-12-22T23:09:51.248Z,3.60
2018-12-22T23:12:24.863Z,3.20
2018-12-22T23:15:12.326Z,3.37
2018-12-22T23:17:43.665Z,3.30
2018-12-22T23:20:14.542Z,3.40
2018-12-22T23:23:01.475Z,2.80
2018-12-22T23:25:36.188Z,2.47
2018-12-22T23:28:09.797Z,2.60
2018-12-22T23:30:43.667Z,2.23
2018-12-22T23:33:18.528Z,2.10
2018-12-22T23:35:49.651Z,2.17
2018-12-22T23:38:22.792Z,1.73
2018-12-22T23:40:54.085Z,2.53
2018-12-22T23:43:22.899Z,1.90
2018-12-22T23:45:51.971Z,1.77
2018-12-22T23:48:26.956Z,2.03
2018-12-22T23:51:09.271Z,2.90
2018-12-22T23:53:40.472Z,4.47
2018-12-22T23:56:11.139Z,2.50
2018-12-22T23:58:39.960Z,1.67
